createdAt,value
2023-01-28T00:01:33.514Z,1.54
2023-01-28T00:04:01.166Z,1.54
2023-01-28T00:06:29.012Z,1.52
2023-01-28T00:08:57.153Z,1.54
2023-01-28T00:11:27.142Z,1.53
2023-01-28T00:13:55.773Z,1.50
2023-01-28T00:16:23.757Z,1.50
2023-01-28T00:18:56.671Z,1.52
2023-01-28T00:21:24.310Z,1.50
2023-01-28T00:23:55.495Z,1.51
2023-01-28T00:26:25.246Z,1.49
2023-01-28T00:28:55.016Z,1.51
2023-01-28T00:31:27.641Z,1.49
2023-01-28T00:33:56.503Z,1.47
2023-01-28T00:36:26.640Z,1.48
2023-01-28T00:39:00.193Z,1.48
2023-01-28T00:41:30.963Z,1.48
2023-01-28T00:43:58.768Z,1.49
2023-01-28T00:46:26.592Z,1.51
2023-01-28T00:48:56.982Z,1.48
2023-01-28T00:51:27.492Z,1.50
2023-01-28T00:53:55.220Z,1.50
2023-01-28T00:56:26.191Z,1.50
2023-01-28T00:58:54.204Z,1.49
2023-01-28T01:01:26.172Z,1.50
2023-01-28T01:03:57.730Z,1.51
2023-01-28T01:06:27.060Z,1.48
2023-01-28T01:08:54.937Z,1.50
2023-01-28T01:11:22.705Z,1.50
2023-01-28T01:13:57.021Z,1.51
2023-01-28T01:16:29.274Z,1.51
2023-01-28T01:18:58.875Z,1.49
2023-01-28T01:21:29.877Z,1.48
2023-01-28T01:23:57.601Z,1.48
2023-01-28T01:26:25.319Z,1.44
2023-01-28T01:28:53.405Z,1.44
2023-01-28T01:31:23.128Z,1.46
2023-01-28T01:33:52.357Z,1.48
2023-01-28T01:36:22.113Z,1.47
2023-01-28T01:38:54.551Z,1.46
2023-01-28T01:41:32.468Z,1.45
2023-01-28T01:44:07.542Z,1.43
2023-01-28T01:46:41.052Z,1.41
2023-01-28T01:49:14.885Z,1.39
2023-01-28T01:51:44.030Z,1.38
2023-01-28T01:54:11.908Z,1.40
2023-01-28T01:56:48.559Z,1.38
2023-01-28T01:59:27.381Z,1.38
2023-01-28T02:01:58.561Z,1.40
2023-01-28T02:04:37.120Z,1.39
2023-01-28T02:07:08.798Z,1.39
2023-01-28T02:09:41.607Z,1.42
2023-01-28T02:12:18.891Z,1.41
2023-01-28T02:14:55.483Z,1.42
2023-01-28T02:17:23.561Z,1.40
2023-01-28T02:19:55.346Z,1.39
2023-01-28T02:22:53.531Z,1.37
2023-01-28T02:25:58.925Z,1.40
2023-01-28T02:28:38.815Z,1.40
2023-01-28T02:31:21.791Z,1.39
2023-01-28T02:33:58.132Z,1.35
2023-01-28T02:36:37.236Z,1.38
2023-01-28T02:39:14.187Z,1.36
2023-01-28T02:41:53.136Z,1.38
2023-01-28T02:44:20.961Z,1.35
2023-01-28T02:47:05.820Z,1.35
2023-01-28T02:49:54.633Z,1.34
2023-01-28T02:53:07.599Z,1.36
2023-01-28T02:56:02.508Z,1.38
2023-01-28T02:58:48.999Z,1.36
2023-01-28T03:01:27.092Z,1.35
2023-01-28T03:04:06.390Z,1.34
2023-01-28T03:06:40.069Z,1.31
2023-01-28T03:09:23.207Z,1.28
2023-01-28T03:12:42.329Z,1.30
2023-01-28T03:15:34.883Z,1.29
2023-01-28T03:18:22.892Z,1.27
2023-01-28T03:21:13.928Z,1.27
2023-01-28T03:24:19.127Z,1.28
2023-01-28T03:27:16.545Z,1.30
2023-01-28T03:30:04.921Z,1.27
2023-01-28T03:32:51.983Z,1.23
2023-01-28T03:35:41.173Z,1.24
2023-01-28T03:38:21.120Z,1.24
2023-01-28T03:41:05.242Z,1.24
2023-01-28T03:43:33.682Z,1.24
2023-01-28T03:46:06.251Z,1.24
2023-01-28T03:48:36.532Z,1.22
2023-01-28T03:51:04.264Z,1.23
2023-01-28T03:53:34.429Z,1.22
2023-01-28T03:56:02.055Z,1.21
2023-01-28T03:58:48.172Z,1.20
2023-01-28T04:01:18.425Z,1.21
2023-01-28T04:03:47.397Z,1.20
2023-01-28T04:06:16.447Z,1.18
2023-01-28T04:08:52.759Z,1.18
2023-01-28T04:11:21.489Z,1.17
2023-01-28T04:13:49.949Z,1.19
2023-01-28T04:16:20.374Z,1.20
2023-01-28T04:18:48.265Z,1.18
2023-01-28T04:21:15.988Z,1.18
2023-01-28T04:23:43.689Z,1.18
2023-01-28T04:26:11.290Z,1.20
2023-01-28T04:28:39.002Z,1.17
2023-01-28T04:31:06.697Z,1.21
2023-01-28T04:33:34.506Z,1.21
2023-01-28T04:36:02.140Z,1.18
2023-01-28T04:38:30.102Z,1.20
2023-01-28T04:40:57.742Z,1.21
2023-01-28T04:43:29.202Z,1.18
2023-01-28T04:45:56.819Z,1.17
2023-01-28T04:48:27.663Z,1.15
2023-01-28T04:50:55.266Z,1.15
2023-01-28T04:53:23.237Z,1.17
2023-01-28T04:55:53.054Z,1.18
2023-01-28T04:58:20.749Z,1.18
2023-01-28T05:00:49.462Z,1.21
2023-01-28T05:03:17.042Z,1.19
2023-01-28T05:05:47.180Z,1.19
2023-01-28T05:08:14.784Z,1.18
2023-01-28T05:10:42.405Z,1.17
2023-01-28T05:13:10.480Z,1.17
2023-01-28T05:15:38.328Z,1.16
2023-01-28T05:18:07.968Z,1.15
2023-01-28T05:20:39.026Z,1.17
2023-01-28T05:23:06.914Z,1.15
2023-01-28T05:25:36.176Z,1.16
2023-01-28T05:28:03.773Z,1.12
2023-01-28T05:30:31.389Z,1.15
2023-01-28T05:32:59.036Z,1.16
2023-01-28T05:35:29.262Z,1.13
2023-01-28T05:37:57.210Z,1.13
2023-01-28T05:40:24.949Z,1.11
2023-01-28T05:42:52.560Z,1.09
2023-01-28T05:45:20.292Z,1.10
2023-01-28T05:47:48.106Z,1.10
2023-01-28T05:50:16.679Z,1.11
2023-01-28T05:52:44.850Z,1.11
2023-01-28T05:55:12.517Z,1.09
2023-01-28T05:57:40.204Z,1.11
2023-01-28T06:00:09.566Z,1.10
2023-01-28T06:02:40.195Z,1.12
2023-01-28T06:05:09.910Z,1.12
2023-01-28T06:07:38.894Z,1.13
2023-01-28T06:10:08.136Z,1.15
2023-01-28T06:12:35.812Z,1.11
2023-01-28T06:15:06.059Z,1.11
2023-01-28T06:17:33.768Z,1.14
2023-01-28T06:20:03.842Z,1.13
2023-01-28T06:22:31.434Z,1.11
2023-01-28T06:25:00.120Z,1.11
2023-01-28T06:27:29.870Z,1.09
2023-01-28T06:29:59.761Z,1.07
2023-01-28T06:32:29.739Z,1.08
2023-01-28T06:35:00.040Z,1.07
2023-01-28T06:37:30.337Z,1.07
2023-01-28T06:40:00.299Z,1.05
2023-01-28T06:42:27.918Z,1.07
2023-01-28T06:44:55.542Z,1.09
2023-01-28T06:47:23.171Z,1.10
2023-01-28T06:49:51.784Z,1.09
2023-01-28T06:52:19.403Z,1.10
2023-01-28T06:54:47.030Z,1.10
2023-01-28T06:57:14.682Z,1.08
2023-01-28T06:59:42.569Z,1.06
2023-01-28T07:02:12.576Z,1.07
2023-01-28T07:04:42.397Z,1.09
2023-01-28T07:07:10.060Z,1.11
2023-01-28T07:09:37.634Z,1.08
2023-01-28T07:12:06.298Z,1.12
2023-01-28T07:14:34.067Z,1.11
2023-01-28T07:17:04.323Z,1.08
2023-01-28T07:19:33.261Z,1.10
2023-01-28T07:22:03.099Z,1.14
2023-01-28T07:24:31.245Z,1.18
2023-01-28T07:27:01.322Z,1.17
2023-01-28T07:29:29.170Z,1.18
2023-01-28T07:31:56.797Z,1.21
2023-01-28T07:34:24.942Z,1.26
2023-01-28T07:36:52.571Z,1.32
2023-01-28T07:39:22.756Z,1.36
2023-01-28T07:41:50.482Z,1.40
2023-01-28T07:44:18.105Z,1.44
2023-01-28T07:46:45.892Z,1.41
2023-01-28T07:49:13.555Z,1.45
2023-01-28T07:51:41.699Z,1.51
2023-01-28T07:54:10.357Z,1.53
2023-01-28T07:56:37.978Z,1.56
2023-01-28T07:59:05.591Z,1.59
2023-01-28T08:01:33.250Z,1.64
2023-01-28T08:04:03.448Z,1.65
2023-01-28T08:06:31.197Z,1.64
2023-01-28T08:08:58.796Z,1.71
2023-01-28T08:11:30.986Z,1.73
2023-01-28T08:13:58.571Z,1.77
2023-01-28T08:16:26.443Z,1.89
2023-01-28T08:18:54.246Z,1.95
2023-01-28T08:21:21.989Z,1.91
2023-01-28T08:23:50.023Z,1.97
2023-01-28T08:26:17.627Z,1.98
2023-01-28T08:28:45.287Z,2.02
2023-01-28T08:31:12.954Z,2.01
2023-01-28T08:33:40.598Z,2.07
2023-01-28T08:36:08.716Z,2.08
2023-01-28T08:38:36.308Z,2.03
2023-01-28T08:41:04.353Z,2.03
2023-01-28T08:43:33.351Z,2.01
2023-01-28T08:46:01.020Z,2.04
2023-01-28T08:48:28.892Z,2.08
2023-01-28T08:51:00.024Z,2.05
2023-01-28T08:53:27.702Z,2.08
2023-01-28T08:55:55.675Z,2.13
2023-01-28T08:58:25.544Z,2.21
2023-01-28T09:00:53.297Z,2.20
2023-01-28T09:03:20.874Z,2.27
2023-01-28T09:05:49.621Z,2.35
2023-01-28T09:08:17.673Z,2.37
2023-01-28T09:10:45.421Z,2.36
2023-01-28T09:13:17.166Z,2.33
2023-01-28T09:15:45.112Z,2.37
2023-01-28T09:18:14.872Z,2.44
2023-01-28T09:20:42.495Z,2.57
2023-01-28T09:23:13.185Z,2.58
2023-01-28T09:25:42.853Z,2.68
2023-01-28T09:28:10.458Z,2.83
2023-01-28T09:30:39.625Z,2.74
2023-01-28T09:33:10.177Z,2.79
2023-01-28T09:35:38.051Z,2.85
2023-01-28T09:38:05.754Z,2.95
2023-01-28T09:40:43.389Z,3.00
2023-01-28T09:43:32.255Z,3.04
2023-01-28T09:46:05.971Z,3.08
2023-01-28T09:48:39.455Z,3.12
2023-01-28T09:51:21.895Z,3.22
2023-01-28T09:53:54.428Z,3.28
2023-01-28T09:56:33.056Z,3.45
2023-01-28T09:59:15.081Z,3.44
2023-01-28T10:01:44.626Z,3.25
2023-01-28T10:04:58.240Z,3.40
2023-01-28T10:07:26.181Z,3.33
2023-01-28T10:09:53.710Z,3.43
2023-01-28T10:12:54.796Z,3.59
2023-01-28T10:15:40.523Z,3.75
2023-01-28T10:18:17.589Z,3.97
2023-01-28T10:20:48.804Z,4.01
2023-01-28T10:23:53.875Z,4.23
2023-01-28T10:26:28.942Z,4.60
2023-01-28T10:29:01.097Z,4.33
2023-01-28T10:31:43.059Z,4.32
2023-01-28T10:34:13.011Z,4.44
2023-01-28T10:36:40.759Z,4.39
2023-01-28T10:39:09.137Z,4.33
2023-01-28T10:41:45.354Z,4.43
2023-01-28T10:44:39.264Z,4.45
2023-01-28T10:47:17.375Z,4.48
2023-01-28T10:49:54.207Z,4.33
2023-01-28T10:52:21.840Z,4.44
2023-01-28T10:54:59.892Z,4.50
2023-01-28T10:57:30.110Z,4.50
2023-01-28T10:59:58.955Z,4.64
2023-01-28T11:02:37.226Z,4.38
2023-01-28T11:05:21.894Z,4.20
2023-01-28T11:07:50.275Z,4.14
2023-01-28T11:10:32.347Z,4.03
2023-01-28T11:13:04.551Z,4.08
2023-01-28T11:15:33.260Z,4.09
2023-01-28T11:18:06.184Z,3.99
2023-01-28T11:20:39.931Z,3.95
2023-01-28T11:23:07.904Z,3.77
2023-01-28T11:25:39.103Z,3.90
2023-01-28T11:28:16.838Z,3.84
2023-01-28T11:30:46.824Z,3.87
2023-01-28T11:33:26.680Z,3.87
2023-01-28T11:36:19.462Z,4.03
2023-01-28T11:38:56.248Z,4.29
2023-01-28T11:41:33.084Z,4.22
2023-01-28T11:44:11.818Z,4.30
2023-01-28T11:47:07.615Z,4.31
2023-01-28T11:49:53.837Z,4.27
2023-01-28T11:53:05.117Z,4.03
2023-01-28T11:55:35.734Z,4.00
2023-01-28T11:58:26.517Z,4.11
2023-01-28T12:01:15.971Z,4.25
2023-01-28T12:04:08.707Z,4.15
2023-01-28T12:07:13.295Z,4.22
2023-01-28T12:09:44.055Z,4.24
2023-01-28T12:12:45.465Z,4.38
2023-01-28T12:16:00.194Z,4.33
2023-01-28T12:18:50.042Z,4.26
2023-01-28T12:22:22.453Z,4.36
2023-01-28T12:25:08.417Z,4.26
2023-01-28T12:27:54.407Z,4.45
2023-01-28T12:31:03.448Z,4.50
2023-01-28T12:33:47.169Z,4.45
2023-01-28T12:36:29.032Z,4.48
2023-01-28T12:39:29.063Z,4.57
2023-01-28T12:42:38.384Z,4.58
2023-01-28T12:45:16.390Z,4.31
2023-01-28T12:47:51.638Z,4.24
2023-01-28T12:50:25.521Z,4.21
2023-01-28T12:53:28.052Z,4.16
2023-01-28T12:56:16.936Z,4.16
2023-01-28T12:58:57.350Z,4.21
2023-01-28T13:01:36.151Z,4.16
2023-01-28T13:04:39.938Z,4.29
2023-01-28T13:07:21.042Z,4.44
2023-01-28T13:09:59.684Z,4.41
2023-01-28T13:12:27.871Z,4.39
2023-01-28T13:14:55.600Z,4.38
2023-01-28T13:17:32.202Z,4.38
2023-01-28T13:20:01.055Z,4.34
2023-01-28T13:22:34.173Z,4.25
2023-01-28T13:25:35.562Z,4.19
2023-01-28T13:28:06.494Z,4.16
2023-01-28T13:30:49.324Z,4.14
2023-01-28T13:33:38.591Z,3.98
2023-01-28T13:36:09.403Z,3.90
2023-01-28T13:38:37.648Z,3.91
2023-01-28T13:41:06.540Z,3.88
2023-01-28T13:43:34.102Z,3.87
2023-01-28T13:46:04.630Z,3.83
2023-01-28T13:48:51.854Z,3.87
2023-01-28T13:51:30.877Z,4.01
2023-01-28T13:54:22.198Z,3.93
2023-01-28T13:57:39.126Z,3.82
2023-01-28T14:00:26.529Z,3.91
2023-01-28T14:03:32.228Z,3.95
2023-01-28T14:06:11.699Z,3.95
2023-01-28T14:09:20.792Z,3.99
2023-01-28T14:12:10.135Z,4.01
2023-01-28T14:14:59.442Z,3.96
2023-01-28T14:17:36.972Z,3.97
2023-01-28T14:20:08.685Z,3.96
2023-01-28T14:22:37.381Z,3.92
2023-01-28T14:25:12.924Z,3.91
2023-01-28T14:27:45.374Z,3.85
2023-01-28T14:30:44.912Z,3.79
2023-01-28T14:33:13.555Z,3.73
2023-01-28T14:35:49.924Z,3.68
2023-01-28T14:38:23.162Z,3.61
2023-01-28T14:40:53.470Z,3.58
2023-01-28T14:43:26.586Z,3.58
2023-01-28T14:46:30.040Z,3.54
2023-01-28T14:49:04.988Z,3.53
2023-01-28T14:51:49.548Z,3.43
2023-01-28T14:54:34.234Z,3.40
2023-01-28T14:57:04.720Z,3.34
2023-01-28T14:59:58.035Z,3.30
2023-01-28T15:02:29.374Z,3.29
2023-01-28T15:05:09.310Z,3.24
2023-01-28T15:07:37.217Z,3.25
2023-01-28T15:10:17.667Z,3.21
2023-01-28T15:13:04.930Z,3.16
2023-01-28T15:15:38.995Z,3.10
2023-01-28T15:18:22.584Z,3.05
2023-01-28T15:20:57.338Z,3.03
2023-01-28T15:23:37.669Z,2.98
2023-01-28T15:26:19.978Z,2.93
2023-01-28T15:28:51.473Z,2.88
2023-01-28T15:31:26.757Z,2.84
2023-01-28T15:34:05.361Z,2.82
2023-01-28T15:36:33.176Z,2.81
2023-01-28T15:39:00.814Z,2.73
2023-01-28T15:41:35.438Z,2.67
2023-01-28T15:44:05.883Z,2.62
2023-01-28T15:46:33.937Z,2.59
2023-01-28T15:49:05.455Z,2.57
2023-01-28T15:51:34.900Z,2.54
2023-01-28T15:54:06.998Z,2.48
2023-01-28T15:56:37.456Z,2.47
2023-01-28T15:59:20.855Z,2.45
2023-01-28T16:01:48.639Z,2.46
2023-01-28T16:04:28.835Z,2.46
2023-01-28T16:07:00.359Z,2.44
2023-01-28T16:09:30.938Z,2.41
2023-01-28T16:12:14.914Z,2.34
2023-01-28T16:14:50.288Z,2.31
2023-01-28T16:17:20.703Z,2.29
2023-01-28T16:19:52.165Z,2.25
2023-01-28T16:22:42.046Z,2.24
2023-01-28T16:25:32.596Z,2.23
2023-01-28T16:28:02.182Z,2.23
2023-01-28T16:30:31.025Z,2.19
2023-01-28T16:32:58.695Z,2.17
2023-01-28T16:35:47.133Z,2.19
2023-01-28T16:38:19.929Z,2.15
2023-01-28T16:40:48.602Z,2.14
2023-01-28T16:43:20.856Z,2.10
2023-01-28T16:45:49.493Z,2.10
2023-01-28T16:48:17.313Z,2.09
2023-01-28T16:50:44.928Z,2.10
2023-01-28T16:53:34.537Z,2.04
2023-01-28T16:56:02.818Z,2.04
2023-01-28T16:58:31.530Z,2.03
2023-01-28T17:00:59.234Z,2.01
2023-01-28T17:03:27.353Z,2.02
2023-01-28T17:05:59.971Z,2.01
2023-01-28T17:08:29.727Z,1.97
2023-01-28T17:10:58.611Z,1.96
2023-01-28T17:13:28.853Z,1.96
2023-01-28T17:15:56.536Z,1.92
2023-01-28T17:18:24.220Z,1.91
2023-01-28T17:20:51.868Z,1.90
2023-01-28T17:23:22.965Z,1.89
2023-01-28T17:25:52.142Z,1.88
2023-01-28T17:28:19.959Z,1.87
2023-01-28T17:30:47.680Z,1.87
2023-01-28T17:33:17.538Z,1.88
2023-01-28T17:35:50.616Z,1.83
2023-01-28T17:38:18.295Z,1.86
2023-01-28T17:40:45.868Z,1.88
2023-01-28T17:43:13.551Z,1.87
2023-01-28T17:45:41.208Z,1.87
2023-01-28T17:48:08.848Z,1.83
2023-01-28T17:50:39.238Z,1.84
2023-01-28T17:53:07.366Z,1.84
2023-01-28T17:55:37.570Z,1.86
2023-01-28T17:58:12.741Z,1.83
2023-01-28T18:00:42.528Z,1.83
2023-01-28T18:03:15.901Z,1.82
2023-01-28T18:05:44.283Z,1.81
2023-01-28T18:08:11.931Z,1.83
2023-01-28T18:10:46.454Z,1.83
2023-01-28T18:13:14.136Z,1.83
2023-01-28T18:15:41.771Z,1.85
2023-01-28T18:18:09.578Z,1.83
2023-01-28T18:20:37.409Z,1.81
2023-01-28T18:23:05.136Z,1.82
2023-01-28T18:25:32.737Z,1.79
2023-01-28T18:28:00.315Z,1.80
2023-01-28T18:30:28.015Z,1.78
2023-01-28T18:32:57.217Z,1.76
2023-01-28T18:35:24.839Z,1.76
2023-01-28T18:37:52.474Z,1.77
2023-01-28T18:40:22.090Z,1.80
2023-01-28T18:42:52.050Z,1.94
2023-01-28T18:45:21.183Z,1.87
2023-01-28T18:47:52.414Z,1.81
2023-01-28T18:50:20.521Z,1.81
2023-01-28T18:52:48.136Z,1.78
2023-01-28T18:55:19.006Z,1.78
2023-01-28T18:57:46.729Z,1.74
2023-01-28T19:00:14.849Z,1.75
2023-01-28T19:02:42.737Z,1.73
2023-01-28T19:05:11.017Z,1.73
2023-01-28T19:07:38.607Z,1.74
2023-01-28T19:10:07.079Z,1.72
2023-01-28T19:12:34.653Z,1.73
2023-01-28T19:15:02.567Z,1.73
2023-01-28T19:17:30.163Z,1.72
2023-01-28T19:19:58.047Z,1.71
2023-01-28T19:22:25.742Z,1.73
2023-01-28T19:24:53.499Z,1.74
2023-01-28T19:27:21.095Z,1.74
2023-01-28T19:29:48.976Z,1.72
2023-01-28T19:32:16.629Z,1.72
2023-01-28T19:34:44.250Z,1.72
2023-01-28T19:37:13.458Z,1.74
2023-01-28T19:39:41.065Z,1.73
2023-01-28T19:42:08.739Z,1.71
2023-01-28T19:44:37.141Z,1.72
2023-01-28T19:47:05.736Z,1.75
2023-01-28T19:49:34.056Z,1.76
2023-01-28T19:52:02.025Z,1.77
2023-01-28T19:54:30.324Z,1.75
2023-01-28T19:56:57.912Z,1.75
2023-01-28T19:59:25.536Z,1.75
2023-01-28T20:01:53.319Z,1.75
2023-01-28T20:04:21.092Z,1.76
2023-01-28T20:06:53.077Z,1.75
2023-01-28T20:09:21.094Z,1.75
2023-01-28T20:11:48.695Z,1.75
2023-01-28T20:14:21.998Z,1.74
2023-01-28T20:16:50.065Z,1.73
2023-01-28T20:19:21.485Z,1.73
2023-01-28T20:21:52.129Z,1.73
2023-01-28T20:24:19.760Z,1.74
2023-01-28T20:26:47.457Z,1.75
2023-01-28T20:29:18.664Z,1.71
2023-01-28T20:32:00.883Z,1.75
2023-01-28T20:34:36.589Z,1.75
2023-01-28T20:37:06.529Z,1.76
2023-01-28T20:39:34.138Z,1.77
2023-01-28T20:42:01.871Z,1.76
2023-01-28T20:44:32.197Z,1.73
2023-01-28T20:47:02.281Z,1.74
2023-01-28T20:49:30.182Z,1.74
2023-01-28T20:51:57.806Z,1.75
2023-01-28T20:54:30.288Z,1.74
2023-01-28T20:56:58.177Z,1.74
2023-01-28T20:59:25.832Z,1.72
2023-01-28T21:01:53.545Z,1.72
2023-01-28T21:04:21.167Z,1.71
2023-01-28T21:06:48.771Z,1.72
2023-01-28T21:09:16.350Z,1.70
2023-01-28T21:11:43.978Z,1.71
2023-01-28T21:14:12.540Z,1.72
2023-01-28T21:16:42.428Z,1.71
2023-01-28T21:19:12.778Z,1.71
2023-01-28T21:21:42.663Z,1.70
2023-01-28T21:24:13.317Z,1.72
2023-01-28T21:26:41.273Z,1.68
2023-01-28T21:29:08.944Z,1.66
2023-01-28T21:31:36.731Z,1.62
2023-01-28T21:34:04.324Z,1.56
2023-01-28T21:36:37.079Z,1.53
2023-01-28T21:39:08.096Z,1.54
2023-01-28T21:41:35.834Z,1.52
2023-01-28T21:44:06.004Z,1.49
2023-01-28T21:46:34.710Z,1.49
2023-01-28T21:49:05.334Z,1.51
2023-01-28T21:51:49.849Z,1.51
2023-01-28T21:54:21.858Z,1.51
2023-01-28T21:56:51.013Z,1.49
2023-01-28T21:59:35.798Z,1.48
2023-01-28T22:02:10.455Z,1.49
2023-01-28T22:04:41.215Z,1.52
2023-01-28T22:07:17.377Z,1.51
2023-01-28T22:09:46.242Z,1.50
2023-01-28T22:12:16.955Z,1.51
2023-01-28T22:14:45.063Z,1.48
2023-01-28T22:17:14.359Z,1.50
2023-01-28T22:19:47.765Z,1.51
2023-01-28T22:22:19.166Z,1.50
2023-01-28T22:24:46.845Z,1.54
2023-01-28T22:27:15.127Z,1.52
2023-01-28T22:29:42.738Z,1.53
2023-01-28T22:32:10.377Z,1.55
2023-01-28T22:34:37.989Z,1.55
2023-01-28T22:37:07.188Z,1.53
2023-01-28T22:39:34.787Z,1.53
2023-01-28T22:42:02.363Z,1.49
2023-01-28T22:44:32.496Z,1.48
2023-01-28T22:47:02.178Z,1.46
2023-01-28T22:49:30.204Z,1.44
2023-01-28T22:52:01.679Z,1.46
2023-01-28T22:54:31.648Z,1.49
2023-01-28T22:56:59.280Z,1.49
2023-01-28T22:59:26.944Z,1.50
2023-01-28T23:01:54.624Z,1.48
2023-01-28T23:04:22.230Z,1.47
2023-01-28T23:06:51.979Z,1.49
2023-01-28T23:09:19.578Z,1.49
2023-01-28T23:11:47.199Z,1.46
2023-01-28T23:14:32.414Z,1.46
2023-01-28T23:17:17.379Z,1.42
2023-01-28T23:20:02.627Z,1.40
2023-01-28T23:22:52.391Z,1.36
2023-01-28T23:25:23.252Z,1.30
2023-01-28T23:27:50.905Z,1.28
2023-01-28T23:30:24.586Z,1.27
2023-01-28T23:32:55.601Z,1.17
2023-01-28T23:35:25.967Z,1.13
2023-01-28T23:37:54.226Z,1.07
2023-01-28T23:40:24.454Z,1.09
2023-01-28T23:42:52.645Z,1.04
2023-01-28T23:45:20.273Z,1.02
2023-01-28T23:47:50.580Z,1.05
2023-01-28T23:50:18.767Z,1.05
2023-01-28T23:52:46.445Z,1.06
2023-01-28T23:55:14.024Z,1.04
2023-01-28T23:57:41.631Z,1.05
